Cincinnati (CVG/KCVG)

Map

Destinations

Information

Location
Cincinnati, KY
Local Time
23:33 / 11:33 pm
GMT Time
03:33 / 3:33 am
Gates
No FAA reported delays
METAR KCVG 260252Z 26004KT 10SM SCT028 SCT040 OVC049 16/14 A2976 RMK AO2 RAB02E09 SLP070 P0000 60000 T01610139 51029
TAF KCVG 252328Z 2600/2706 29012KT P6SM OVC025 FM260300 27008KT P6SM SCT035 FM260800 24004KT P6SM SCT070 TEMPO 2608/2612 4SM BR FM261300 22007KT P6SM SCT150